Time;durP1;ratioP1;P1;durP2;ratioP2;P2;SDS_P1;SDS_P2;PMS_P1;PMS_P2;Temp;Humidity;BMP_temperature;BMP_pressure;BME280_temperature;BME280_humidity;BME280_pressure;Samples;Min_cycle;Max_cycle;Signal;HPM_P1;HPM_P2
2022/04/23 00:00:21;;;;;;;;;;;;;;;10.21;48.56;101050.59;5023507;28;20433;-66
2022/04/23 00:02:47;;;;;;;;;;;;;;;10.19;48.46;101051.59;5036735;28;20042;-67
2022/04/23 00:05:12;;;;;;;;;;;;;;;10.13;48.67;101058.03;5037011;28;19923;-67
2022/04/23 00:07:38;;;;;;;;;;;;;;;10.09;48.73;101050.34;5042418;28;20456;-67
2022/04/23 00:10:04;;;;;;;;;;;;;;;10.08;48.80;101054.78;5041468;28;19927;-67
2022/04/23 00:12:29;;;;;;;;;;;;;;;10.06;48.85;101052.19;5040922;28;19916;-67
2022/04/23 00:14:55;;;;;;;;;;;;;;;10.03;48.72;101046.25;5042422;28;19916;-67
2022/04/23 00:17:20;;;;;;;;;;;;;;;10.01;48.86;101043.72;5040185;28;19920;-67
2022/04/23 00:19:47;;;;;;;;;;;;;;;10.00;49.02;101041.16;5041238;28;19916;-66
2022/04/23 00:22:12;;;;;;;;;;;;;;;9.97;49.09;101047.41;5040714;28;19924;-68
2022/04/23 00:24:38;;;;;;;;;;;;;;;9.90;49.23;101049.50;5040517;28;19970;-67
2022/04/23 00:27:03;;;;;;;;;;;;;;;9.86;49.23;101044.47;5040401;28;20011;-66
2022/04/23 00:29:29;;;;;;;;;;;;;;;9.79;49.36;101041.31;5023873;28;19920;-67
2022/04/23 00:31:55;;;;;;;;;;;;;;;9.70;49.70;101042.63;5037312;28;19935;-68
2022/04/23 00:34:20;;;;;;;;;;;;;;;9.63;49.71;101037.75;5035770;28;20396;-67
2022/04/23 00:36:46;;;;;;;;;;;;;;;9.60;49.91;101041.38;5036284;28;19916;-66
2022/04/23 00:39:11;;;;;;;;;;;;;;;9.60;50.00;101036.13;5038789;28;19917;-66
2022/04/23 00:41:46;;;;;;;;;;;;;;;9.62;50.02;101042.13;5020289;28;20007;-67
2022/04/23 00:44:12;;;;;;;;;;;;;;;9.63;49.76;101046.44;5039986;28;19921;-66
2022/04/23 00:46:37;;;;;;;;;;;;;;;9.63;49.88;101056.97;5040232;28;20421;-67
2022/04/23 00:49:03;;;;;;;;;;;;;;;9.63;50.04;101056.13;5039217;28;20031;-66
2022/04/23 00:51:29;;;;;;;;;;;;;;;9.59;49.76;101058.06;5038527;28;19916;-67
2022/04/23 00:53:56;;;;;;;;;;;;;;;9.62;49.92;101052.63;5034595;28;20355;-67
2022/04/23 00:56:22;;;;;;;;;;;;;;;9.64;49.98;101061.28;5039954;28;19940;-66
2022/04/23 00:58:48;;;;;;;;;;;;;;;9.66;49.87;101059.44;5027668;28;19931;-66
2022/04/23 01:01:14;;;;;;;;;;;;;;;9.66;49.83;101054.19;5038904;28;19916;-67
2022/04/23 01:03:42;;;;;;;;;;;;;;;9.62;49.93;101063.16;5025598;28;19923;-66
2022/04/23 01:06:10;;;;;;;;;;;;;;;9.61;49.94;101064.06;5025258;28;20305;-67
2022/04/23 01:08:36;;;;;;;;;;;;;;;9.55;49.75;101059.97;5028926;28;19917;-67
2022/04/23 01:11:02;;;;;;;;;;;;;;;9.55;49.99;101057.34;5039199;28;19928;-67
2022/04/23 01:13:27;;;;;;;;;;;;;;;9.53;50.06;101060.97;5037884;28;19912;-66
2022/04/23 01:15:55;;;;;;;;;;;;;;;9.51;50.19;101060.19;5035609;28;19917;-66
2022/04/23 01:18:21;;;;;;;;;;;;;;;9.46;50.23;101061.25;5041915;28;19916;-68
2022/04/23 01:20:47;;;;;;;;;;;;;;;9.38;50.21;101059.91;5039044;28;20385;-67
2022/04/23 01:23:13;;;;;;;;;;;;;;;9.33;50.46;101062.78;5039995;28;19917;-67
2022/04/23 01:25:38;;;;;;;;;;;;;;;9.33;50.43;101062.78;5039083;28;19916;-67
2022/04/23 01:28:03;;;;;;;;;;;;;;;9.30;50.64;101052.44;5040951;28;19917;-68
2022/04/23 01:30:29;;;;;;;;;;;;;;;9.24;50.74;101052.72;5037208;28;20430;-67
2022/04/23 01:32:54;;;;;;;;;;;;;;;9.10;50.82;101059.47;5038761;28;19917;-67
2022/04/23 01:35:20;;;;;;;;;;;;;;;9.05;51.19;101063.22;5041062;28;20015;-67
2022/04/23 01:37:45;;;;;;;;;;;;;;;8.97;51.10;101058.34;5043314;28;19920;-67
2022/04/23 01:40:11;;;;;;;;;;;;;;;8.95;51.29;101061.00;5043295;28;20020;-67
2022/04/23 01:42:37;;;;;;;;;;;;;;;8.93;51.37;101060.22;5043985;28;20396;-67
2022/04/23 01:45:02;;;;;;;;;;;;;;;8.88;51.48;101056.97;5036253;28;19917;-67
2022/04/23 01:47:27;;;;;;;;;;;;;;;8.82;51.63;101047.63;5043314;28;20373;-67
2022/04/23 01:49:53;;;;;;;;;;;;;;;8.77;51.75;101048.75;5044130;28;19921;-68
2022/04/23 01:52:18;;;;;;;;;;;;;;;8.77;51.69;101054.84;5043407;28;19963;-67
2022/04/23 01:54:43;;;;;;;;;;;;;;;8.75;51.75;101055.84;5024400;28;20451;-67
2022/04/23 01:57:09;;;;;;;;;;;;;;;8.74;52.05;101054.97;5043888;28;19917;-66
2022/04/23 01:59:34;;;;;;;;;;;;;;;8.69;51.99;101067.47;5037669;28;20570;-67
2022/04/23 02:01:59;;;;;;;;;;;;;;;8.63;52.10;101062.47;5041269;28;19921;-67
2022/04/23 02:04:25;;;;;;;;;;;;;;;8.60;52.24;101057.34;5040042;28;19924;-66
2022/04/23 02:06:51;;;;;;;;;;;;;;;8.60;52.43;101054.72;5043865;28;19924;-66
2022/04/23 02:09:17;;;;;;;;;;;;;;;8.61;52.35;101059.06;5042836;28;20307;-67
2022/04/23 02:11:43;;;;;;;;;;;;;;;8.64;52.20;101067.63;5044122;28;19921;-66
2022/04/23 02:14:09;;;;;;;;;;;;;;;8.68;52.12;101056.09;5024555;28;19917;-67
2022/04/23 02:16:34;;;;;;;;;;;;;;;8.68;52.22;101060.50;5043053;28;19923;-67
2022/04/23 02:19:01;;;;;;;;;;;;;;;8.65;52.39;101065.88;5043743;28;19917;-67
2022/04/23 02:21:26;;;;;;;;;;;;;;;8.60;52.50;101057.34;5044831;28;19927;-66
2022/04/23 02:23:53;;;;;;;;;;;;;;;8.56;52.47;101061.03;5041597;28;19917;-67
2022/04/23 02:26:20;;;;;;;;;;;;;;;8.57;52.59;101057.47;5040771;28;19917;-67
2022/04/23 02:28:46;;;;;;;;;;;;;;;8.63;52.50;101051.97;5040016;28;19927;-67
2022/04/23 02:31:12;;;;;;;;;;;;;;;8.65;52.69;101047.53;5022411;28;19929;-67
2022/04/23 02:33:37;;;;;;;;;;;;;;;8.62;52.58;101056.34;5043871;28;19924;-67
2022/04/23 02:36:06;;;;;;;;;;;;;;;8.59;52.72;101045.16;5040345;28;19995;-66
2022/04/23 02:38:32;;;;;;;;;;;;;;;8.56;52.74;101061.03;5041842;28;19917;-67
2022/04/23 02:40:57;;;;;;;;;;;;;;;8.57;52.71;101057.47;5038958;28;19963;-67
2022/04/23 02:43:22;;;;;;;;;;;;;;;8.64;52.66;101065.00;5039032;28;19996;-67
2022/04/23 02:45:48;;;;;;;;;;;;;;;8.69;52.61;101060.44;5041036;28;20269;-67
2022/04/23 02:48:13;;;;;;;;;;;;;;;8.74;52.66;101059.38;5039614;28;19974;-67
2022/04/23 02:50:38;;;;;;;;;;;;;;;8.75;52.51;101061.06;5040603;28;20629;-67
2022/04/23 02:53:05;;;;;;;;;;;;;;;8.76;52.67;101071.50;5039119;28;20160;-67
2022/04/23 02:55:34;;;;;;;;;;;;;;;8.78;52.61;101060.91;5043829;28;20385;-67
2022/04/23 02:58:09;;;;;;;;;;;;;;;8.79;52.41;101063.50;5041421;28;19998;-67
2022/04/23 03:00:38;;;;;;;;;;;;;;;8.78;52.51;101064.41;5043836;28;19974;-67
2022/04/23 03:03:05;;;;;;;;;;;;;;;8.73;52.87;101058.50;5041436;28;20329;-67
2022/04/23 03:05:31;;;;;;;;;;;;;;;8.63;52.75;101062.47;5039739;28;19913;-67
2022/04/23 03:07:59;;;;;;;;;;;;;;;8.53;53.12;101057.66;5037837;28;20326;-66
2022/04/23 03:10:25;;;;;;;;;;;;;;;8.50;53.14;101057.78;5040222;28;19931;-67
2022/04/23 03:12:50;;;;;;;;;;;;;;;8.52;53.23;101057.69;5039475;28;19917;-67
2022/04/23 03:15:19;;;;;;;;;;;;;;;8.43;53.29;101055.47;5042168;28;19924;-68
2022/04/23 03:17:45;;;;;;;;;;;;;;;8.23;53.97;101049.28;5042577;28;20023;-67
2022/04/23 03:20:12;;;;;;;;;;;;;;;8.05;54.15;101054.41;5042128;28;19984;-66
2022/04/23 03:22:41;;;;;;;;;;;;;;;7.90;54.60;101053.28;5043061;28;19924;-67
2022/04/23 03:25:07;;;;;;;;;;;;;;;7.78;54.71;101051.19;5042977;28;20012;-67
2022/04/23 03:27:32;;;;;;;;;;;;;;;7.67;55.07;101053.38;5042464;28;20015;-67
2022/04/23 03:29:58;;;;;;;;;;;;;;;7.60;55.08;101051.00;5040638;28;19921;-67
2022/04/23 03:32:24;;;;;;;;;;;;;;;7.54;55.32;101053.03;5036390;28;19921;-67
2022/04/23 03:34:49;;;;;;;;;;;;;;;7.55;55.39;101057.34;5040472;28;19921;-67
2022/04/23 03:37:15;;;;;;;;;;;;;;;7.57;55.41;101056.38;5040017;28;19924;-68
2022/04/23 03:39:40;;;;;;;;;;;;;;;7.63;55.38;101050.88;5040464;28;19913;-66
2022/04/23 03:42:06;;;;;;;;;;;;;;;7.69;55.53;101048.91;5040771;28;19916;-67
2022/04/23 03:44:31;;;;;;;;;;;;;;;7.72;55.12;101048.81;5041039;28;20013;-67
2022/04/23 03:46:57;;;;;;;;;;;;;;;7.80;55.15;101057.19;5042122;28;20415;-67
2022/04/23 03:49:23;;;;;;;;;;;;;;;7.92;54.84;101061.06;5042335;28;20019;-67
2022/04/23 03:51:49;;;;;;;;;;;;;;;8.01;54.82;101062.47;5042028;28;20050;-67
2022/04/23 03:54:14;;;;;;;;;;;;;;;8.09;54.54;101060.38;5041128;28;20319;-67
2022/04/23 03:56:40;;;;;;;;;;;;;;;8.06;54.68;101056.09;5038829;28;19943;-67
2022/04/23 03:59:07;;;;;;;;;;;;;;;7.97;54.88;101059.13;5038076;28;19925;-67
2022/04/23 04:01:33;;;;;;;;;;;;;;;7.85;55.36;101065.72;5039356;28;19917;-66
2022/04/23 04:03:58;;;;;;;;;;;;;;;7.77;55.27;101055.56;5039659;28;20645;-67
2022/04/23 04:06:23;;;;;;;;;;;;;;;7.68;55.57;101057.69;5041124;28;19963;-66
2022/04/23 04:08:50;;;;;;;;;;;;;;;7.59;55.75;101064.16;5038624;28;19955;-66
2022/04/23 04:11:15;;;;;;;;;;;;;;;7.52;56.08;101060.09;5037104;28;20337;-67
2022/04/23 04:13:41;;;;;;;;;;;;;;;7.47;56.32;101061.13;5040500;28;19985;-66
2022/04/23 04:16:06;;;;;;;;;;;;;;;7.46;56.15;101063.81;5040910;28;19917;-67
2022/04/23 04:18:32;;;;;;;;;;;;;;;7.47;56.18;101058.50;5039057;28;20439;-66
2022/04/23 04:20:58;;;;;;;;;;;;;;;7.49;56.37;101061.03;5042266;28;19921;-66
2022/04/23 04:23:26;;;;;;;;;;;;;;;7.50;56.34;101060.13;5039165;28;19966;-66
2022/04/23 04:25:52;;;;;;;;;;;;;;;7.52;56.45;101058.31;5019367;28;19956;-66
2022/04/23 04:28:17;;;;;;;;;;;;;;;7.55;56.64;101071.28;5026744;28;20356;-66
2022/04/23 04:33:26;;;;;;;;;;;;;;;7.72;56.11;101061.91;5040315;28;19918;-66
2022/04/23 04:35:52;;;;;;;;;;;;;;;7.77;56.36;101063.41;5040697;28;19917;-67
2022/04/23 04:38:17;;;;;;;;;;;;;;;7.80;56.19;101062.41;5040988;28;19916;-66
2022/04/23 04:40:42;;;;;;;;;;;;;;;7.83;56.08;101056.22;5038725;28;19940;-66
2022/04/23 04:43:08;;;;;;;;;;;;;;;7.86;56.21;101056.94;5037668;28;20011;-66
2022/04/23 04:45:33;;;;;;;;;;;;;;;7.89;56.38;101061.19;5039968;28;19951;-66
2022/04/23 04:47:58;;;;;;;;;;;;;;;7.90;56.05;101063.78;5040451;28;19924;-66
2022/04/23 04:50:30;;;;;;;;;;;;;;;7.90;56.32;101063.78;5035458;28;19974;-67
2022/04/23 04:52:55;;;;;;;;;;;;;;;7.86;56.32;101062.19;5035474;28;19927;-67
2022/04/23 04:55:20;;;;;;;;;;;;;;;7.82;56.43;101065.00;5036331;28;20350;-67
2022/04/23 04:57:46;;;;;;;;;;;;;;;7.80;56.86;101062.41;5041322;28;19924;-67
2022/04/23 05:00:11;;;;;;;;;;;;;;;7.76;56.99;101066.09;5039145;28;19917;-68
2022/04/23 05:02:37;;;;;;;;;;;;;;;7.72;56.89;101075.00;5040046;28;21112;-66
2022/04/23 05:05:03;;;;;;;;;;;;;;;7.69;57.24;101069.88;5034237;28;19946;-67
2022/04/23 05:07:28;;;;;;;;;;;;;;;7.71;57.08;101074.16;5039974;28;20730;-67
2022/04/23 05:09:53;;;;;;;;;;;;;;;7.78;57.23;101072.97;5039426;28;19967;-67
2022/04/23 05:12:19;;;;;;;;;;;;;;;7.84;56.81;101071.88;5035414;28;19920;-66
2022/04/23 05:14:44;;;;;;;;;;;;;;;7.89;56.84;101067.31;5037228;28;20007;-67
2022/04/23 05:17:09;;;;;;;;;;;;;;;8.03;56.80;101071.13;5039110;28;19920;-67
2022/04/23 05:19:35;;;;;;;;;;;;;;;8.14;56.88;101079.38;5037014;28;19944;-66
2022/04/23 05:22:00;;;;;;;;;;;;;;;8.21;56.37;101072.97;5036673;28;19917;-66
2022/04/23 05:24:25;;;;;;;;;;;;;;;8.26;56.65;101070.13;5035224;28;19939;-67
2022/04/23 05:26:51;;;;;;;;;;;;;;;8.32;56.47;101074.28;5040813;28;19925;-66
2022/04/23 05:29:16;;;;;;;;;;;;;;;8.43;56.15;101069.41;5039082;28;19917;-66
2022/04/23 05:31:41;;;;;;;;;;;;;;;8.52;56.05;101071.69;5039039;28;20365;-67
2022/04/23 05:34:07;;;;;;;;;;;;;;;8.57;56.03;101078.47;5039617;28;19920;-66
2022/04/23 05:36:32;;;;;;;;;;;;;;;8.61;56.04;101074.81;5039041;28;20008;-66
2022/04/23 05:38:58;;;;;;;;;;;;;;;8.63;55.81;101072.97;5038521;28;19920;-66
2022/04/23 05:41:23;;;;;;;;;;;;;;;8.63;55.97;101072.97;5022855;28;19917;-66
2022/04/23 05:43:48;;;;;;;;;;;;;;;8.63;55.86;101068.56;5039496;28;19917;-67
2022/04/23 05:46:16;;;;;;;;;;;;;;;8.60;56.29;101073.09;5037391;28;19917;-67
2022/04/23 05:48:42;;;;;;;;;;;;;;;8.58;56.30;101080.16;5039948;28;19924;-66
2022/04/23 05:51:07;;;;;;;;;;;;;;;8.64;56.17;101074.66;5037116;28;20309;-67
2022/04/23 05:53:32;;;;;;;;;;;;;;;8.71;56.15;101081.34;5037391;28;20203;-67
2022/04/23 05:55:58;;;;;;;;;;;;;;;8.79;55.92;101079.22;5039204;28;20538;-67
2022/04/23 05:58:23;;;;;;;;;;;;;;;8.85;55.94;101073.69;5037174;28;19932;-67
2022/04/23 06:00:50;;;;;;;;;;;;;;;8.89;55.75;101077.06;5040479;28;20451;-66
2022/04/23 06:03:15;;;;;;;;;;;;;;;8.93;55.79;101070.72;5038149;28;20180;-67
2022/04/23 06:05:40;;;;;;;;;;;;;;;8.99;55.72;101074.88;5020794;28;19917;-67
2022/04/23 06:08:06;;;;;;;;;;;;;;;9.08;55.43;101076.19;5038778;28;19920;-67
2022/04/23 06:10:31;;;;;;;;;;;;;;;9.17;55.42;101069.66;5037163;28;19917;-67
2022/04/23 06:12:56;;;;;;;;;;;;;;;9.25;55.27;101076.25;5038433;28;19913;-67
2022/04/23 06:15:22;;;;;;;;;;;;;;;9.32;55.17;101071.56;5040020;28;20352;-66
2022/04/23 06:17:47;;;;;;;;;;;;;;;9.34;55.17;101074.97;5021862;28;20020;-67
2022/04/23 06:20:13;;;;;;;;;;;;;;;9.32;54.96;101081.25;5016932;28;20066;-67
2022/04/23 06:22:38;;;;;;;;;;;;;;;9.26;55.18;101077.13;5040271;28;20288;-67
2022/04/23 06:25:05;;;;;;;;;;;;;;;9.25;55.20;101076.25;5038963;28;19928;-67
2022/04/23 06:27:31;;;;;;;;;;;;;;;9.28;55.15;101080.53;5037976;28;19932;-67
2022/04/23 06:29:57;;;;;;;;;;;;;;;9.36;55.06;101073.13;5042297;28;19921;-67
2022/04/23 06:32:22;;;;;;;;;;;;;;;9.41;55.17;101084.28;5038874;28;19923;-67
2022/04/23 06:34:47;;;;;;;;;;;;;;;9.44;55.11;101080.66;5040405;28;20016;-67
2022/04/23 06:37:13;;;;;;;;;;;;;;;9.48;55.14;101081.34;5039106;28;20015;-67
2022/04/23 06:39:38;;;;;;;;;;;;;;;9.51;55.17;101073.31;5040175;28;20426;-67
2022/04/23 06:42:03;;;;;;;;;;;;;;;9.56;55.15;101073.97;5038558;28;19940;-69
2022/04/23 06:44:29;;;;;;;;;;;;;;;9.63;54.97;101082.41;5039728;28;20416;-67
2022/04/23 06:46:54;;;;;;;;;;;;;;;9.70;54.69;101079.41;5042886;28;20019;-67
2022/04/23 06:49:20;;;;;;;;;;;;;;;9.79;54.77;101085.13;5042659;28;20274;-67
2022/04/23 06:51:45;;;;;;;;;;;;;;;9.86;54.70;101081.28;5042576;28;19962;-67
2022/04/23 06:54:10;;;;;;;;;;;;;;;9.89;54.62;101079.34;5022593;28;19924;-67
2022/04/23 06:56:37;;;;;;;;;;;;;;;9.98;54.66;101079.84;5042389;28;19912;-67
2022/04/23 06:59:02;;;;;;;;;;;;;;;10.03;54.47;101080.44;5030238;28;19916;-67
2022/04/23 07:01:28;;;;;;;;;;;;;;;10.07;54.44;101084.63;5044129;28;19924;-67
2022/04/23 07:03:53;;;;;;;;;;;;;;;10.13;54.32;101079.06;5022225;28;19920;-67
2022/04/23 07:06:18;;;;;;;;;;;;;;;10.18;54.28;101076.19;5033165;28;19916;-66
2022/04/23 07:08:44;;;;;;;;;;;;;;;10.21;54.27;101070.75;5039865;28;19927;-67
2022/04/23 07:11:10;;;;;;;;;;;;;;;10.22;54.26;101080.34;5036508;28;20028;-67
2022/04/23 07:13:35;;;;;;;;;;;;;;;10.25;54.33;101074.94;5042194;28;20459;-67
2022/04/23 07:16:01;;;;;;;;;;;;;;;10.30;54.27;101075.56;5039707;28;19944;-68
2022/04/23 07:18:27;;;;;;;;;;;;;;;10.37;54.24;101071.66;5039946;28;20011;-67
2022/04/23 07:20:52;;;;;;;;;;;;;;;10.42;54.11;101074.13;5022262;28;19974;-67
2022/04/23 07:26:02;;;;;;;;;;;;;;;10.49;53.99;101075.47;5040603;28;19923;-68
2022/04/23 07:28:27;;;;;;;;;;;;;;;10.54;53.93;101071.78;5042358;28;20237;-68
2022/04/23 07:30:53;;;;;;;;;;;;;;;10.60;54.06;101066.16;5041856;28;19946;-68
2022/04/23 07:38:46;;;;;;;;;;;;;;;10.81;53.57;101064.22;5034566;28;20095;-61
2022/04/23 07:41:11;;;;;;;;;;;;;;;10.83;53.20;101073.72;5039129;28;20035;-61
2022/04/23 07:43:37;;;;;;;;;;;;;;;10.88;53.33;101067.34;5041448;28;19913;-62
2022/04/23 07:46:02;;;;;;;;;;;;;;;10.93;53.23;101070.56;5038422;28;20001;-62
2022/04/23 07:48:28;;;;;;;;;;;;;;;11.00;53.26;101057.91;5043350;28;20392;-62
2022/04/23 07:50:53;;;;;;;;;;;;;;;11.06;53.20;101068.97;5038593;28;19917;-63
2022/04/23 07:53:18;;;;;;;;;;;;;;;11.14;53.04;101058.00;5039540;28;20000;-63
2022/04/23 07:55:44;;;;;;;;;;;;;;;11.25;52.85;101063.56;5042195;28;19917;-63
2022/04/23 07:58:12;;;;;;;;;;;;;;;11.34;52.82;101058.69;5040453;28;19952;-62
2022/04/23 08:00:38;;;;;;;;;;;;;;;11.41;52.54;101063.53;5039380;28;19921;-62
2022/04/23 08:03:04;;;;;;;;;;;;;;;11.47;52.02;101062.34;5041701;28;19916;-63
2022/04/23 08:05:29;;;;;;;;;;;;;;;11.51;52.14;101053.34;5041239;28;19917;-63
2022/04/23 08:07:55;;;;;;;;;;;;;;;11.57;51.94;101052.13;5039362;28;19928;-63
2022/04/23 08:10:20;;;;;;;;;;;;;;;11.64;51.97;101052.63;5040626;28;19951;-63
2022/04/23 08:12:46;;;;;;;;;;;;;;;11.69;51.34;101053.22;5022561;28;20033;-63
2022/04/23 08:15:12;;;;;;;;;;;;;;;11.73;51.50;101047.69;5035293;28;19932;-63
2022/04/23 08:17:37;;;;;;;;;;;;;;;11.78;51.46;101042.13;5041500;28;20361;-62
2022/04/23 08:20:03;;;;;;;;;;;;;;;11.82;51.38;101046.31;5036221;28;19913;-63
2022/04/23 08:22:29;;;;;;;;;;;;;;;11.89;51.22;101046.78;5041264;28;19963;-69
2022/04/23 08:24:55;;;;;;;;;;;;;;;11.96;51.19;101048.13;5038629;28;19924;-67
2022/04/23 08:27:21;;;;;;;;;;;;;;;12.05;51.15;101052.03;5039601;28;19982;-67
2022/04/23 08:32:30;;;;;;;;;;;;;;;12.20;50.48;101042.38;5039082;28;19928;-68
2022/04/23 08:34:55;;;;;;;;;;;;;;;12.26;50.31;101039.34;5036066;28;19924;-68
2022/04/23 08:37:22;;;;;;;;;;;;;;;12.31;50.49;101037.28;5019722;28;20318;-67
2022/04/23 08:39:47;;;;;;;;;;;;;;;12.36;50.17;101034.38;5040791;28;19967;-68
2022/04/23 08:42:15;;;;;;;;;;;;;;;12.41;50.24;101027.03;5040438;28;19944;-68
2022/04/23 08:44:41;;;;;;;;;;;;;;;12.48;50.25;101036.25;5041421;28;20075;-67
2022/04/23 08:47:08;;;;;;;;;;;;;;;12.56;49.95;101034.94;5037952;28;20420;-67
2022/04/23 08:49:38;;;;;;;;;;;;;;;12.63;49.79;101030.97;5019218;28;19955;-67
2022/04/23 08:52:14;;;;;;;;;;;;;;;12.69;49.38;101029.78;5036087;28;19929;-67
2022/04/23 08:54:40;;;;;;;;;;;;;;;12.73;48.84;101026.84;5037536;28;20356;-67
2022/04/23 08:57:05;;;;;;;;;;;;;;;12.79;49.08;101034.38;5037819;28;20408;-68
2022/04/23 08:59:30;;;;;;;;;;;;;;;12.85;48.99;101030.50;5036135;28;19913;-68
2022/04/23 09:01:55;;;;;;;;;;;;;;;12.93;48.97;101027.38;5027416;28;19931;-68
2022/04/23 09:04:21;;;;;;;;;;;;;;;13.00;48.26;101028.69;5039064;28;20232;-68
2022/04/23 09:06:47;;;;;;;;;;;;;;;13.06;48.40;101025.66;5030923;28;19920;-69
2022/04/23 09:09:12;;;;;;;;;;;;;;;13.10;48.21;101016.56;5037441;28;19928;-69
2022/04/23 09:11:40;;;;;;;;;;;;;;;13.16;48.12;101022.41;5038381;28;19952;-69
2022/04/23 09:14:06;;;;;;;;;;;;;;;13.20;47.33;101019.47;5040841;28;20364;-70
2022/04/23 09:25:03;;;;;;;;;;;;;;;13.38;47.04;101017.47;5042366;28;19962;-69
2022/04/23 09:27:29;;;;;;;;;;;;;;;13.44;46.90;101010.09;5041699;28;19924;-69
2022/04/23 09:29:58;;;;;;;;;;;;;;;13.45;46.26;101002.06;5039117;28;19966;-66
2022/04/23 09:32:24;;;;;;;;;;;;;;;13.47;46.57;100999.31;5038968;28;19924;-67
2022/04/23 09:35:02;;;;;;;;;;;;;;;13.50;46.68;100999.94;5036531;28;19975;-67
2022/04/23 09:38:11;;;;;;;;;;;;;;;13.58;46.19;101002.09;5030921;28;20019;-67
2022/04/23 09:40:27;;;;;;;;;;;;;;;13.63;46.19;100997.34;5040700;28;19971;-66
2022/04/23 09:43:06;;;;;;;;;;;;;;;13.69;46.11;100996.94;5039952;28;20047;-67
2022/04/23 09:45:32;;;;;;;;;;;;;;;13.78;45.26;100997.28;5040201;28;19995;-67
2022/04/23 09:48:03;;;;;;;;;;;;;;;13.82;44.44;100993.47;5038104;28;19956;-67
2022/04/23 09:50:35;;;;;;;;;;;;;;;13.91;45.34;100987.56;5038370;28;19995;-67
2022/04/23 09:53:08;;;;;;;;;;;;;;;13.98;44.75;100986.19;5037577;28;19949;-66
2022/04/23 09:55:34;;;;;;;;;;;;;;;14.04;44.93;100982.28;5036520;28;19921;-67
2022/04/23 09:58:00;;;;;;;;;;;;;;;14.04;45.07;100984.94;5037294;28;19916;-67
2022/04/23 10:00:25;;;;;;;;;;;;;;;14.09;45.30;100984.59;5040525;28;20289;-66
2022/04/23 10:02:55;;;;;;;;;;;;;;;14.13;44.29;100978.16;5041309;28;19956;-66
2022/04/23 10:05:21;;;;;;;;;;;;;;;14.15;44.54;100984.16;5042799;28;19977;-68
2022/04/23 10:07:47;;;;;;;;;;;;;;;14.18;42.96;100983.97;5039560;28;20074;-67
2022/04/23 10:10:13;;;;;;;;;;;;;;;14.26;43.92;100979.00;5043043;28;20011;-67
2022/04/23 10:12:40;;;;;;;;;;;;;;;14.37;43.38;100980.03;5037263;28;19941;-68
2022/04/23 10:15:06;;;;;;;;;;;;;;;14.47;43.76;100989.03;5041844;28;20026;-68
2022/04/23 10:17:32;;;;;;;;;;;;;;;14.57;43.10;100987.44;5041369;28;19916;-67
2022/04/23 10:19:59;;;;;;;;;;;;;;;14.67;43.09;100984.13;5042876;28;19921;-68
2022/04/23 10:22:31;;;;;;;;;;;;;;;14.69;42.54;100983.09;5042103;28;19921;-66
2022/04/23 10:25:12;;;;;;;;;;;;;;;14.71;42.68;100985.63;5039952;28;19955;-65
2022/04/23 10:27:37;;;;;;;;;;;;;;;14.75;42.34;100979.16;5038979;28;19963;-67
2022/04/23 10:30:04;;;;;;;;;;;;;;;14.78;42.25;100977.16;5040925;28;19921;-66
2022/04/23 10:32:38;;;;;;;;;;;;;;;14.82;42.32;100972.47;5044567;28;19917;-66
2022/04/23 10:35:24;;;;;;;;;;;;;;;14.86;41.88;100967.78;5025578;28;19917;-67
2022/04/23 10:37:49;;;;;;;;;;;;;;;14.96;42.14;100968.81;5042334;28;19933;-67
2022/04/23 10:40:18;;;;;;;;;;;;;;;15.01;40.74;100966.66;5041678;28;19928;-67
2022/04/23 10:43:02;;;;;;;;;;;;;;;15.06;40.71;100964.53;5024889;28;19913;-67
2022/04/23 10:45:35;;;;;;;;;;;;;;;15.10;40.16;100962.50;5041193;28;19952;-67
2022/04/23 10:48:18;;;;;;;;;;;;;;;15.12;40.22;100965.06;5042621;28;20000;-68
2022/04/23 10:51:04;;;;;;;;;;;;;;;15.13;40.23;100956.97;5043910;28;19917;-68
2022/04/23 10:53:35;;;;;;;;;;;;;;;15.16;40.41;100956.75;5042869;28;20055;-67
2022/04/23 10:56:10;;;;;;;;;;;;;;;15.23;40.63;100949.19;5021452;28;20399;-67
2022/04/23 10:58:38;;;;;;;;;;;;;;;15.33;40.31;100944.06;5038553;28;19921;-67
2022/04/23 11:01:21;;;;;;;;;;;;;;;15.44;40.43;100943.22;5043316;28;20023;-67
2022/04/23 11:03:52;;;;;;;;;;;;;;;15.54;40.20;100939.78;5041245;28;19920;-67
2022/04/23 11:12:33;;;;;;;;;;;;;;;15.92;39.03;100937.00;4988012;28;19917;-67
2022/04/23 11:14:58;;;;;;;;;;;;;;;16.00;38.74;100931.94;4967173;28;20397;-67
2022/04/23 11:17:44;;;;;;;;;;;;;;;16.07;39.09;100919.03;5006062;28;19927;-66
2022/04/23 11:20:13;;;;;;;;;;;;;;;16.10;36.74;100924.97;5037579;28;20475;-67
2022/04/23 11:22:39;;;;;;;;;;;;;;;16.15;37.81;100921.94;5038605;28;19921;-66
2022/04/23 11:25:05;;;;;;;;;;;;;;;16.18;37.93;100934.97;5040507;28;20683;-66
2022/04/23 11:27:37;;;;;;;;;;;;;;;16.19;37.40;100926.03;5042433;28;20011;-67
2022/04/23 11:30:06;;;;;;;;;;;;;;;16.20;37.36;100926.88;5038720;28;19921;-66
2022/04/23 11:32:32;;;;;;;;;;;;;;;16.18;36.68;100919.06;5042571;28;20391;-66
2022/04/23 11:34:58;;;;;;;;;;;;;;;16.15;36.82;100920.13;5023673;28;19913;-66
2022/04/23 11:37:37;;;;;;;;;;;;;;;16.12;36.91;100916.88;5042337;28;20632;-67
2022/04/23 11:40:09;;;;;;;;;;;;;;;16.11;36.97;100916.00;5041024;28;19952;-67
2022/04/23 11:42:37;;;;;;;;;;;;;;;16.11;37.15;100913.34;5039147;28;20358;-67
2022/04/23 11:45:03;;;;;;;;;;;;;;;16.13;37.36;100905.28;5039378;28;19931;-67
2022/04/23 11:47:29;;;;;;;;;;;;;;;16.18;36.76;100902.25;5041785;28;19921;-67
2022/04/23 11:49:55;;;;;;;;;;;;;;;16.25;37.38;100891.03;5039246;28;20357;-66
2022/04/23 11:52:23;;;;;;;;;;;;;;;16.30;35.93;100901.28;5042284;28;19964;-66
2022/04/23 11:54:50;;;;;;;;;;;;;;;16.33;36.13;100890.41;5041080;28;19926;-68
2022/04/23 11:57:16;;;;;;;;;;;;;;;16.37;36.47;100888.34;5041132;28;19932;-66
2022/04/23 11:59:42;;;;;;;;;;;;;;;16.38;35.97;100887.41;5040154;28;19925;-66
2022/04/23 12:02:17;;;;;;;;;;;;;;;16.37;36.54;100886.56;5041428;28;19939;-67
2022/04/23 12:04:44;;;;;;;;;;;;;;;16.31;35.99;100881.72;5039034;28;19917;-67
2022/04/23 12:07:10;;;;;;;;;;;;;;;16.26;36.23;100881.28;5042284;28;20388;-67
2022/04/23 12:09:45;;;;;;;;;;;;;;;16.23;36.54;100878.84;5036968;28;20380;-68
2022/04/23 12:12:14;;;;;;;;;;;;;;;16.26;36.74;100884.75;5039289;28;19925;-67
2022/04/23 12:14:47;;;;;;;;;;;;;;;16.32;36.60;100874.63;5040465;28;19913;-69
2022/04/23 12:17:19;;;;;;;;;;;;;;;16.37;36.62;100870.63;5038327;28;19985;-68
2022/04/23 12:19:45;;;;;;;;;;;;;;;16.44;36.87;100874.47;5040695;28;19916;-68
2022/04/23 12:22:20;;;;;;;;;;;;;;;16.52;36.24;100871.19;5041784;28;19918;-68
2022/04/23 12:24:45;;;;;;;;;;;;;;;16.58;35.93;100864.53;5043382;28;19920;-69
2022/04/23 12:27:11;;;;;;;;;;;;;;;16.60;35.99;100859.94;5039526;28;19920;-68
2022/04/23 12:40:45;;;;;;;;;;;;;;;16.92;35.66;100843.16;5040983;28;19923;-67
2022/04/23 12:43:37;;;;;;;;;;;;;;;16.97;35.76;100835.69;5037067;28;19921;-68
2022/04/23 12:46:07;;;;;;;;;;;;;;;17.06;35.81;100834.91;5015956;28;19917;-67
2022/04/23 12:48:52;;;;;;;;;;;;;;;17.13;35.74;100837.91;5038785;28;19928;-66
2022/04/23 12:51:18;;;;;;;;;;;;;;;17.19;35.47;100840.03;5031118;28;20262;-73
2022/04/23 12:53:43;;;;;;;;;;;;;;;17.21;35.46;100830.13;5040325;28;19923;-73
2022/04/23 12:56:09;;;;;;;;;;;;;;;17.28;35.38;100827.78;5042057;28;19978;-74
2022/04/23 12:58:34;;;;;;;;;;;;;;;17.37;34.83;100829.66;5038503;28;19916;-73
2022/04/23 13:00:59;;;;;;;;;;;;;;;17.44;34.69;100831.81;5038047;28;19917;-73
2022/04/23 13:05:53;;;;;;;;;;;;;;;17.45;34.75;100836.16;5039047;28;20487;-72
2022/04/23 13:13:46;;;;;;;;;;;;;;;17.46;35.04;100811.25;5041112;28;20001;-71
2022/04/23 13:16:11;;;;;;;;;;;;;;;17.51;35.03;100806.34;5040377;28;20000;-70
2022/04/23 13:18:37;;;;;;;;;;;;;;;17.62;34.83;100800.94;5040630;28;20427;-71
2022/04/23 13:21:03;;;;;;;;;;;;;;;17.76;34.70;100801.56;5028834;28;19967;-70
2022/04/23 13:23:29;;;;;;;;;;;;;;;17.91;34.55;100805.56;5017319;28;19994;-69
2022/04/23 13:25:57;;;;;;;;;;;;;;;18.04;34.20;100802.66;5024193;28;19963;-69
2022/04/23 13:28:23;;;;;;;;;;;;;;;18.13;34.66;100799.19;5040944;28;20015;-69